Time;durP1;ratioP1;P1;durP2;ratioP2;P2;SDS_P1;SDS_P2;PMS_P1;PMS_P2;Temp;Humidity;BMP_temperature;BMP_pressure;BME280_temperature;BME280_humidity;BME280_pressure;Samples;Min_cycle;Max_cycle;Signal;HPM_P1;HPM_P2
2021/06/09 00:02:02;;;;;;;11.25;9.55;;;22.60;70.70;;;;;;5063012;28;20210;-73
2021/06/09 00:04:28;;;;;;;13.65;10.13;;;22.60;71.00;;;;;;5057365;28;20587;-73
2021/06/09 00:06:55;;;;;;;14.35;9.55;;;22.60;71.20;;;;;;5065367;28;20199;-73
2021/06/09 00:09:22;;;;;;;14.77;9.65;;;22.50;71.40;;;;;;5065665;28;20191;-72
2021/06/09 00:11:48;;;;;;;11.93;9.93;;;22.50;71.70;;;;;;5065793;28;20881;-73
2021/06/09 00:14:16;;;;;;;10.88;9.60;;;22.50;71.70;;;;;;5064275;28;20191;-74
2021/06/09 00:16:44;;;;;;;13.20;9.95;;;22.50;71.90;;;;;;5066351;28;20285;-73
2021/06/09 00:19:13;;;;;;;;;;;22.40;72.10;;;;;;5064376;28;20153;-74
2021/06/09 00:21:39;;;;;;;;;;;22.30;72.10;;;;;;5073565;28;19924;-72
2021/06/09 00:24:06;;;;;;;;;;;22.20;72.20;;;;;;5065282;28;19939;-73
2021/06/09 00:26:32;;;;;;;;;;;22.20;72.30;;;;;;5067826;28;19920;-73
2021/06/09 00:28:59;;;;;;;;;;;22.10;72.50;;;;;;5066372;28;19924;-74
2021/06/09 00:31:25;;;;;;;;;;;22.00;72.70;;;;;;5066194;28;19920;-73
2021/06/09 00:33:51;;;;;;;;;;;22.00;72.90;;;;;;5065077;28;20373;-73
2021/06/09 00:36:19;;;;;;;;;;;22.00;72.80;;;;;;5064154;28;20019;-73
2021/06/09 00:38:45;;;;;;;;;;;21.90;73.00;;;;;;5066275;28;19920;-73
2021/06/09 00:41:11;;;;;;;;;;;21.90;73.10;;;;;;5068026;28;19925;-73
2021/06/09 00:43:38;;;;;;;14.02;11.07;;;21.90;73.20;;;;;;5070089;28;20300;-72
2021/06/09 00:46:06;;;;;;;15.47;11.83;;;21.90;71.60;;;;;;5066978;28;20907;-73
2021/06/09 00:48:34;;;;;;;14.82;12.02;;;22.40;74.80;;;;;;5066094;28;20423;-72
2021/06/09 00:51:03;;;;;;;15.90;11.90;;;22.80;74.20;;;;;;5071803;28;20454;-73
2021/06/09 00:53:34;;;;;;;14.05;11.60;;;23.00;73.90;;;;;;5068472;28;21281;-73
2021/06/09 00:56:02;;;;;;;14.32;11.38;;;23.10;73.20;;;;;;5063627;28;20534;-74
2021/06/09 00:58:28;;;;;;;18.48;12.10;;;23.20;72.80;;;;;;5065914;28;20969;-75
2021/06/09 01:00:55;;;;;;;15.35;11.90;;;23.30;72.50;;;;;;5064127;28;20908;-74
2021/06/09 01:03:22;;;;;;;18.95;12.80;;;23.30;72.10;;;;;;5062942;28;20437;-75
2021/06/09 01:05:49;;;;;;;15.05;12.25;;;23.40;71.90;;;;;;5067423;28;20427;-74
2021/06/09 01:08:16;;;;;;;18.52;13.25;;;23.40;72.30;;;;;;5063965;28;20431;-74
2021/06/09 01:10:45;;;;;;;16.48;12.65;;;23.40;72.80;;;;;;5061364;28;20459;-74
2021/06/09 01:13:12;;;;;;;15.83;12.97;;;23.40;72.70;;;;;;5063010;28;20841;-72
2021/06/09 01:15:39;;;;;;;19.37;13.40;;;23.40;72.70;;;;;;5067505;28;20437;-74
2021/06/09 01:18:05;;;;;;;17.80;13.63;;;23.40;73.00;;;;;;5063516;28;20419;-73
2021/06/09 01:20:32;;;;;;;16.20;11.88;;;23.40;73.20;;;;;;5067990;28;20203;-73
2021/06/09 01:23:01;;;;;;;14.70;11.18;;;23.00;73.70;;;;;;5064412;28;20282;-73
2021/06/09 01:25:28;;;;;;;19.02;12.07;;;22.70;74.20;;;;;;5066491;28;20207;-73
2021/06/09 01:27:55;;;;;;;23.85;13.38;;;22.60;74.60;;;;;;5064527;28;20206;-73
2021/06/09 01:30:23;;;;;;;17.10;13.30;;;22.40;74.80;;;;;;5065250;28;20678;-72
2021/06/09 01:32:51;;;;;;;17.90;12.98;;;22.30;75.10;;;;;;5066302;28;20663;-75
2021/06/09 01:35:18;;;;;;;18.98;14.65;;;22.20;75.60;;;;;;5066497;28;20199;-74
2021/06/09 01:37:44;;;;;;;18.27;13.90;;;22.10;76.00;;;;;;5066269;28;20244;-74
2021/06/09 01:40:15;;;;;;;18.33;13.82;;;22.00;76.40;;;;;;5063806;28;20206;-74
2021/06/09 01:42:42;;;;;;;19.08;13.80;;;21.90;76.90;;;;;;5068018;28;20237;-73
2021/06/09 01:45:12;;;;;;;17.38;13.73;;;21.90;77.20;;;;;;5065494;28;20211;-75
2021/06/09 01:47:38;;;;;;;19.00;13.05;;;21.80;77.40;;;;;;5066578;28;20202;-74
2021/06/09 01:50:06;;;;;;;18.17;14.25;;;21.70;77.60;;;;;;5072823;28;20213;-74
2021/06/09 01:52:33;;;;;;;18.23;13.32;;;21.70;77.90;;;;;;5066264;28;20199;-73
2021/06/09 01:55:00;;;;;;;17.02;12.95;;;21.60;78.10;;;;;;5064946;28;20209;-73
2021/06/09 01:57:28;;;;;;;17.73;13.05;;;21.60;78.40;;;;;;5066286;28;20213;-73
2021/06/09 01:59:55;;;;;;;15.15;12.75;;;21.50;78.50;;;;;;5065161;28;20219;-73
2021/06/09 02:02:21;;;;;;;19.80;13.50;;;21.50;78.80;;;;;;5060897;28;20206;-73
2021/06/09 02:04:48;;;;;;;19.80;12.27;;;21.50;79.10;;;;;;5064263;28;20697;-73
2021/06/09 02:07:15;;;;;;;16.63;12.55;;;21.40;79.30;;;;;;5067731;28;20209;-74
2021/06/09 02:09:42;;;;;;;18.08;13.07;;;21.40;79.60;;;;;;5063738;28;20241;-75
2021/06/09 02:12:09;;;;;;;15.65;12.48;;;21.30;79.70;;;;;;5073315;28;20204;-73
2021/06/09 02:14:37;;;;;;;18.15;12.82;;;21.30;79.90;;;;;;5061552;28;20206;-73
2021/06/09 02:17:05;;;;;;;19.13;13.60;;;21.20;80.10;;;;;;5069756;28;20206;-74
2021/06/09 02:19:32;;;;;;;20.55;13.18;;;21.20;80.30;;;;;;5061523;28;20264;-74
2021/06/09 02:21:59;;;;;;;17.88;13.55;;;21.10;80.50;;;;;;5061811;28;20219;-73
2021/06/09 02:24:30;;;;;;;17.67;12.93;;;21.10;80.60;;;;;;5063469;28;20206;-74
2021/06/09 02:27:02;;;;;;;18.92;13.65;;;21.10;80.90;;;;;;5064499;28;20679;-75
2021/06/09 02:29:29;;;;;;;17.25;14.32;;;21.10;81.00;;;;;;5061895;28;20190;-75
2021/06/09 02:32:01;;;;;;;19.45;13.85;;;21.10;81.20;;;;;;5065214;28;20198;-74
2021/06/09 02:34:27;;;;;;;18.98;15.25;;;21.00;81.40;;;;;;5066959;28;20217;-74
2021/06/09 02:36:56;;;;;;;21.35;14.43;;;21.00;81.50;;;;;;5068806;28;20274;-73
2021/06/09 02:39:24;;;;;;;19.15;14.95;;;21.00;81.80;;;;;;5066112;28;20306;-74
2021/06/09 02:41:51;;;;;;;18.10;14.68;;;20.90;82.00;;;;;;5070843;28;20552;-75
2021/06/09 02:44:18;;;;;;;19.33;14.48;;;20.90;82.20;;;;;;5063986;28;20298;-75
2021/06/09 02:46:48;;;;;;;18.58;14.50;;;20.90;82.30;;;;;;5067754;28;20202;-74
2021/06/09 02:49:21;;;;;;;19.70;15.27;;;20.90;82.50;;;;;;5065347;28;20431;-74
2021/06/09 02:51:56;;;;;;;18.35;14.90;;;21.40;82.30;;;;;;5063607;28;20438;-74
2021/06/09 02:54:31;;;;;;;22.15;15.50;;;21.70;81.00;;;;;;5062305;28;20426;-73
2021/06/09 02:57:05;;;;;;;18.52;15.15;;;21.80;80.30;;;;;;5064722;28;20431;-75
2021/06/09 02:59:43;;;;;;;20.73;14.98;;;21.90;80.20;;;;;;5062981;28;20439;-74
2021/06/09 03:02:17;;;;;;;18.40;15.25;;;21.90;79.70;;;;;;5062202;28;20500;-74
2021/06/09 03:04:52;;;;;;;20.73;15.13;;;22.00;79.70;;;;;;5061366;28;20415;-74
2021/06/09 03:07:28;;;;;;;19.37;15.23;;;22.00;80.00;;;;;;5062385;28;20446;-74
2021/06/09 03:10:04;;;;;;;21.33;15.57;;;22.10;79.90;;;;;;5062557;28;20807;-75
2021/06/09 03:12:43;;;;;;;18.73;15.82;;;22.10;79.90;;;;;;5064651;28;20510;-73
2021/06/09 03:15:13;;;;;;;19.85;16.00;;;22.10;79.80;;;;;;5061428;28;20424;-73
2021/06/09 03:17:45;;;;;;;18.98;15.35;;;22.10;80.00;;;;;;5062471;28;20430;-73
2021/06/09 03:20:20;;;;;;;20.38;15.10;;;22.10;80.00;;;;;;5062919;28;20256;-75
2021/06/09 03:22:57;;;;;;;20.95;15.90;;;21.80;80.80;;;;;;5060802;28;20577;-73
2021/06/09 03:25:30;;;;;;;20.63;16.05;;;21.50;81.50;;;;;;5065544;28;20193;-76
2021/06/09 03:28:03;;;;;;;19.90;15.90;;;21.30;82.20;;;;;;5066624;28;20615;-74
2021/06/09 03:30:30;;;;;;;20.35;16.30;;;21.10;82.70;;;;;;5062316;28;20198;-74
2021/06/09 03:33:01;;;;;;;19.65;15.82;;;21.00;83.00;;;;;;5067196;28;20576;-72
2021/06/09 03:35:36;;;;;;;22.02;16.88;;;20.90;83.30;;;;;;5061197;28;20233;-74
2021/06/09 03:38:06;;;;;;;19.70;16.23;;;20.80;83.50;;;;;;5063056;28;20282;-73
2021/06/09 03:40:37;;;;;;;19.35;16.45;;;20.70;83.80;;;;;;5061215;28;20198;-73
2021/06/09 03:43:08;;;;;;;22.67;15.95;;;20.70;84.20;;;;;;5064000;28;20252;-73
2021/06/09 03:45:38;;;;;;;18.73;15.60;;;20.60;84.50;;;;;;5062341;28;20207;-73
2021/06/09 03:48:06;;;;;;;21.33;16.92;;;20.60;84.90;;;;;;5063576;28;20202;-72
2021/06/09 03:50:34;;;;;;;19.17;16.27;;;20.50;85.00;;;;;;5060728;28;20215;-72
2021/06/09 03:53:03;;;;;;;22.48;16.50;;;20.50;85.30;;;;;;5065807;28;20210;-73
2021/06/09 03:55:33;;;;;;;20.38;16.83;;;20.50;85.50;;;;;;5069808;28;20206;-73
2021/06/09 03:58:01;;;;;;;20.00;16.70;;;20.50;85.60;;;;;;5066721;28;20210;-72
2021/06/09 04:00:29;;;;;;;21.63;16.65;;;20.40;85.70;;;;;;5068715;28;20217;-74
2021/06/09 04:02:56;;;;;;;22.02;16.77;;;20.40;85.90;;;;;;5067780;28;20198;-72
2021/06/09 04:05:24;;;;;;;23.15;16.58;;;20.40;86.20;;;;;;5069125;28;20213;-72
2021/06/09 04:07:57;;;;;;;21.65;17.60;;;20.40;86.50;;;;;;5074716;28;20202;-72
2021/06/09 04:10:24;;;;;;;21.77;17.73;;;20.40;86.70;;;;;;5068508;28;20205;-73
2021/06/09 04:12:50;;;;;;;20.30;17.08;;;20.40;86.80;;;;;;5068531;28;20209;-74
2021/06/09 04:15:19;;;;;;;30.80;17.95;;;20.30;86.90;;;;;;5069809;28;20667;-72
2021/06/09 04:17:49;;;;;;;25.50;18.02;;;20.30;87.20;;;;;;5067985;28;20611;-74
2021/06/09 04:20:23;;;;;;;21.38;17.27;;;20.30;87.30;;;;;;5066829;28;20894;-73
2021/06/09 04:22:50;;;;;;;24.50;17.67;;;20.40;87.70;;;;;;5068915;28;20228;-74
2021/06/09 04:25:19;;;;;;;20.75;17.10;;;20.40;87.80;;;;;;5067216;28;20264;-73
2021/06/09 04:27:47;;;;;;;24.90;17.63;;;20.40;88.00;;;;;;5070555;28;20206;-74
2021/06/09 04:30:15;;;;;;;23.83;17.50;;;20.50;88.20;;;;;;5066992;28;20658;-74
2021/06/09 04:32:49;;;;;;;19.98;16.10;;;20.50;88.40;;;;;;5070037;28;20199;-73
2021/06/09 04:35:16;;;;;;;21.70;15.95;;;20.50;88.40;;;;;;5066606;28;20221;-74
2021/06/09 04:37:43;;;;;;;20.15;15.65;;;20.50;88.40;;;;;;5069042;28;21021;-75
2021/06/09 04:40:15;;;;;;;20.27;15.35;;;20.50;88.40;;;;;;5068502;28;20689;-74
2021/06/09 04:42:44;;;;;;;22.20;16.35;;;20.50;88.40;;;;;;5069251;28;20325;-73
2021/06/09 04:45:12;;;;;;;22.48;16.48;;;20.50;88.50;;;;;;5064512;28;20583;-72
2021/06/09 04:47:39;;;;;;;23.38;16.10;;;20.50;88.60;;;;;;5070224;28;20213;-73
2021/06/09 04:50:07;;;;;;;26.77;17.45;;;20.50;88.70;;;;;;5065877;28;20206;-72
2021/06/09 04:52:34;;;;;;;22.15;16.55;;;20.50;89.60;;;;;;5067775;28;20227;-73
2021/06/09 04:55:00;;;;;;;23.77;17.73;;;20.50;88.90;;;;;;5067622;28;20592;-72
2021/06/09 04:57:26;;;;;;;23.80;17.70;;;20.50;89.10;;;;;;5072310;28;20579;-72
2021/06/09 04:59:54;;;;;;;23.02;17.40;;;20.50;89.30;;;;;;5067746;28;20210;-73
2021/06/09 05:02:20;;;;;;;24.45;17.80;;;20.50;89.50;;;;;;5066560;28;20209;-73
2021/06/09 05:04:47;;;;;;;21.92;17.23;;;20.50;89.70;;;;;;5068517;28;20570;-72
2021/06/09 05:07:14;;;;;;;22.23;18.05;;;20.50;89.80;;;;;;5079335;28;20209;-73
2021/06/09 05:09:40;;;;;;;22.75;18.10;;;20.60;90.00;;;;;;5067534;28;20658;-73
2021/06/09 05:12:13;;;;;;;25.98;16.95;;;20.50;90.00;;;;;;5070048;28;20207;-74
2021/06/09 05:14:46;;;;;;;25.63;18.15;;;20.60;90.00;;;;;;5066051;28;20717;-72
2021/06/09 05:17:17;;;;;;;25.05;18.58;;;20.60;90.10;;;;;;5065398;28;20260;-72
2021/06/09 05:19:45;;;;;;;26.75;18.50;;;20.60;90.20;;;;;;5075414;28;20218;-73
2021/06/09 05:22:16;;;;;;;22.95;16.70;;;20.60;90.20;;;;;;5067150;28;20225;-73
2021/06/09 05:24:44;;;;;;;25.92;18.92;;;20.60;90.20;;;;;;5068729;28;20568;-71
2021/06/09 05:27:13;;;;;;;25.70;18.55;;;20.60;90.30;;;;;;5067301;28;20202;-71
2021/06/09 05:29:42;;;;;;;24.13;17.65;;;20.60;90.30;;;;;;5070781;28;20237;-72
2021/06/09 05:32:10;;;;;;;27.27;18.05;;;20.70;90.40;;;;;;5065390;28;20215;-74
2021/06/09 05:34:39;;;;;;;28.13;18.60;;;20.70;90.40;;;;;;5068855;28;20697;-76
2021/06/09 05:37:06;;;;;;;26.05;19.85;;;20.70;90.40;;;;;;5087631;28;20289;-71
2021/06/09 05:39:37;;;;;;;24.80;18.40;;;20.70;90.50;;;;;;5072274;28;20736;-72
2021/06/09 05:42:06;;;;;;;24.23;18.48;;;20.80;90.50;;;;;;5072041;28;20210;-72
2021/06/09 05:44:32;;;;;;;30.70;19.73;;;20.80;90.50;;;;;;5074261;28;20206;-71
2021/06/09 05:46:59;;;;;;;24.05;19.05;;;20.80;90.50;;;;;;5082914;28;20271;-72
2021/06/09 05:49:26;;;;;;;25.42;19.10;;;20.80;90.60;;;;;;5076034;28;20226;-70
2021/06/09 05:51:55;;;;;;;24.77;18.15;;;20.80;90.60;;;;;;5078290;28;20201;-72
2021/06/09 05:54:22;;;;;;;22.75;18.27;;;20.80;90.60;;;;;;5076685;28;20616;-76
2021/06/09 05:56:49;;;;;;;29.95;19.75;;;20.80;90.70;;;;;;5073957;28;20217;-74
2021/06/09 05:59:16;;;;;;;28.17;19.73;;;20.90;90.70;;;;;;5073360;28;20217;-71
2021/06/09 06:01:44;;;;;;;26.50;19.88;;;20.90;90.70;;;;;;5071460;28;20541;-73
2021/06/09 06:04:11;;;;;;;27.48;20.15;;;21.40;90.40;;;;;;5072560;28;20423;-70
2021/06/09 06:06:39;;;;;;;22.67;18.00;;;21.70;89.70;;;;;;5072950;28;20438;-73
2021/06/09 06:09:07;;;;;;;22.40;18.40;;;21.90;88.10;;;;;;5069657;28;20771;-71
2021/06/09 06:11:34;;;;;;;25.77;19.05;;;22.10;87.40;;;;;;5071272;28;20431;-71
2021/06/09 06:14:06;;;;;;;22.95;18.30;;;22.20;86.90;;;;;;5074792;28;20429;-71
2021/06/09 06:16:32;;;;;;;24.58;18.00;;;22.30;86.00;;;;;;5072173;28;20835;-70
2021/06/09 06:19:00;;;;;;;22.25;17.02;;;22.30;85.60;;;;;;5069610;28;20431;-70
2021/06/09 06:21:27;;;;;;;20.87;16.80;;;22.40;84.10;;;;;;5075054;28;20427;-72
2021/06/09 06:23:55;;;;;;;25.52;18.30;;;22.50;83.60;;;;;;5072554;28;20423;-73
2021/06/09 06:26:24;;;;;;;23.85;17.70;;;22.50;84.10;;;;;;5071051;28;20422;-73
2021/06/09 06:28:52;;;;;;;21.00;16.27;;;22.60;84.50;;;;;;5071616;28;20739;-75
2021/06/09 06:31:22;;;;;;;23.45;15.98;;;22.60;83.00;;;;;;5074755;28;20908;-71
2021/06/09 06:33:52;;;;;;;22.75;16.52;;;22.60;82.50;;;;;;5071659;28;20427;-72
2021/06/09 06:36:22;;;;;;;23.07;16.40;;;22.60;82.20;;;;;;5071011;28;20496;-73
2021/06/09 06:38:49;;;;;;;24.63;17.30;;;22.70;82.00;;;;;;5078339;28;20428;-71
2021/06/09 06:41:16;;;;;;;23.52;17.83;;;22.70;81.90;;;;;;5067619;28;20501;-71
2021/06/09 06:43:44;;;;;;;22.15;17.42;;;22.80;82.00;;;;;;5079490;28;20423;-72
2021/06/09 06:46:13;;;;;;;23.58;18.45;;;22.80;82.10;;;;;;5068307;28;20407;-72
2021/06/09 06:48:40;;;;;;;23.27;18.83;;;22.80;81.90;;;;;;5073355;28;20425;-70
2021/06/09 06:51:08;;;;;;;24.15;17.90;;;22.80;82.10;;;;;;5068020;28;20573;-74
2021/06/09 06:53:35;;;;;;;23.88;18.45;;;22.50;83.20;;;;;;5068086;28;20206;-73
2021/06/09 06:56:02;;;;;;;25.45;18.85;;;22.20;83.80;;;;;;5069098;28;20191;-71
2021/06/09 06:58:31;;;;;;;29.17;19.27;;;22.10;84.50;;;;;;5067761;28;20660;-72
2021/06/09 07:00:59;;;;;;;24.65;19.02;;;21.90;84.80;;;;;;5068186;28;20195;-73
2021/06/09 07:03:26;;;;;;;24.73;19.30;;;21.80;85.00;;;;;;5067299;28;20194;-71
2021/06/09 07:05:54;;;;;;;24.60;18.73;;;21.80;85.30;;;;;;5065746;28;20427;-72
2021/06/09 07:08:21;;;;;;;22.98;18.73;;;22.10;84.60;;;;;;5067074;28;20489;-72
2021/06/09 07:10:47;;;;;;;22.67;18.23;;;22.40;82.20;;;;;;5070881;28;20430;-72
2021/06/09 07:13:14;;;;;;;29.15;18.30;;;22.50;81.00;;;;;;5064741;28;20509;-70
2021/06/09 07:15:42;;;;;;;26.83;19.33;;;22.60;81.10;;;;;;5067507;28;20419;-72
2021/06/09 07:18:11;;;;;;;24.80;18.63;;;22.70;80.10;;;;;;5067771;28;20415;-73
2021/06/09 07:20:37;;;;;;;23.83;17.60;;;22.80;79.20;;;;;;5066231;28;20439;-69
2021/06/09 07:23:04;;;;;;;22.88;17.73;;;22.80;79.40;;;;;;5068084;28;20535;-72
2021/06/09 07:25:31;;;;;;;22.65;17.20;;;22.80;77.20;;;;;;5066765;28;20425;-69
2021/06/09 07:28:02;;;;;;;23.70;17.33;;;22.90;77.40;;;;;;5065975;28;20478;-70
2021/06/09 07:30:31;;;;;;;20.77;15.73;;;22.90;76.40;;;;;;5067324;28;20473;-72
2021/06/09 07:32:58;;;;;;;22.95;16.52;;;22.90;73.90;;;;;;5061929;28;21255;-73
2021/06/09 07:35:25;;;;;;;20.60;14.80;;;23.00;74.10;;;;;;5060009;28;20423;-74
2021/06/09 07:37:57;;;;;;;19.25;15.02;;;23.00;72.40;;;;;;5066333;28;20423;-74
2021/06/09 07:40:27;;;;;;;20.15;14.85;;;23.00;72.30;;;;;;5049908;28;20463;-72
2021/06/09 07:42:57;;;;;;;19.55;13.55;;;23.10;72.20;;;;;;5079149;28;20435;-71
2021/06/09 07:45:26;;;;;;;20.60;16.08;;;23.10;71.60;;;;;;5065830;28;20929;-72
2021/06/09 07:47:53;;;;;;;22.48;16.13;;;23.10;72.10;;;;;;5065683;28;20423;-71
2021/06/09 07:50:25;;;;;;;18.58;13.93;;;23.10;71.90;;;;;;5068237;28;20404;-71
2021/06/09 07:52:55;;;;;;;21.17;13.82;;;23.10;70.60;;;;;;5067457;28;20455;-72
2021/06/09 07:55:22;;;;;;;22.02;13.73;;;23.20;69.20;;;;;;5067813;28;20536;-71
2021/06/09 07:57:49;;;;;;;23.15;15.38;;;23.20;68.50;;;;;;5075206;28;20429;-71
2021/06/09 08:00:17;;;;;;;22.00;15.70;;;23.30;68.90;;;;;;5068039;28;20985;-75
2021/06/09 08:02:44;;;;;;;17.73;13.48;;;23.30;68.10;;;;;;5066030;28;20423;-72
2021/06/09 08:05:12;;;;;;;18.05;13.60;;;23.30;67.40;;;;;;5067659;28;20431;-74
2021/06/09 08:07:40;;;;;;;19.90;13.38;;;23.30;66.80;;;;;;5068048;28;20535;-73
2021/06/09 08:10:11;;;;;;;16.30;11.45;;;23.30;67.10;;;;;;5066866;28;20400;-74
2021/06/09 08:12:39;;;;;;;20.30;14.13;;;23.40;65.30;;;;;;5067868;28;20879;-72
2021/06/09 08:15:07;;;;;;;19.60;12.70;;;23.40;65.60;;;;;;5064453;28;20427;-74
2021/06/09 08:17:38;;;;;;;22.45;11.35;;;23.40;65.40;;;;;;5066726;28;20419;-73
2021/06/09 08:20:07;;;;;;;19.73;11.68;;;23.40;64.00;;;;;;5067573;28;20487;-74
2021/06/09 08:22:34;;;;;;;16.70;10.27;;;23.40;63.30;;;;;;5069218;28;20411;-74
2021/06/09 08:25:00;;;;;;;15.80;9.13;;;23.50;61.90;;;;;;5067799;28;20468;-75
2021/06/09 08:27:28;;;;;;;17.63;9.18;;;23.50;60.60;;;;;;5076548;28;20519;-72
2021/06/09 08:29:55;;;;;;;16.00;9.90;;;23.50;60.10;;;;;;5079934;28;20414;-71
2021/06/09 08:32:21;;;;;;;15.07;10.07;;;23.50;61.00;;;;;;5066459;28;20903;-71
2021/06/09 08:34:47;;;;;;;16.33;10.20;;;23.50;61.10;;;;;;5078824;28;20411;-73
2021/06/09 08:37:14;;;;;;;16.80;9.73;;;23.50;62.30;;;;;;5066080;28;20768;-72
2021/06/09 08:39:40;;;;;;;16.85;11.95;;;23.60;61.50;;;;;;5067630;28;20431;-71
2021/06/09 08:42:07;;;;;;;16.85;11.43;;;23.60;62.70;;;;;;5070708;28;20415;-72
2021/06/09 08:44:39;;;;;;;19.83;12.07;;;23.60;61.50;;;;;;5070681;28;20910;-74
2021/06/09 08:47:08;;;;;;;15.93;10.90;;;23.60;61.60;;;;;;5070227;28;20435;-72
2021/06/09 08:49:35;;;;;;;14.70;11.17;;;23.70;63.40;;;;;;5074567;28;20411;-72
2021/06/09 08:52:03;;;;;;;16.13;10.73;;;23.70;60.70;;;;;;5070022;28;20473;-71
2021/06/09 08:54:31;;;;;;;12.40;9.30;;;23.70;61.70;;;;;;5075330;28;20420;-70
2021/06/09 08:56:58;;;;;;;14.77;9.75;;;23.70;61.00;;;;;;5079146;28;20427;-74
2021/06/09 08:59:25;;;;;;;16.20;9.25;;;23.80;60.70;;;;;;5068919;28;20501;-72
2021/06/09 09:01:53;;;;;;;15.57;8.23;;;23.80;60.30;;;;;;5068982;28;20898;-72
2021/06/09 09:04:19;;;;;;;11.70;7.50;;;23.80;60.00;;;;;;5075212;28;20770;-72
2021/06/09 09:06:46;;;;;;;11.40;7.72;;;23.80;58.90;;;;;;5070420;28;20414;-71
2021/06/09 09:09:13;;;;;;;10.73;7.22;;;23.80;57.70;;;;;;5079441;28;20417;-71
2021/06/09 09:11:39;;;;;;;9.30;6.35;;;23.80;57.70;;;;;;5073644;28;20421;-72
2021/06/09 09:14:06;;;;;;;11.10;6.20;;;23.80;58.20;;;;;;5071431;28;21251;-72
2021/06/09 09:16:32;;;;;;;10.87;5.73;;;23.80;58.10;;;;;;5070612;28;20419;-72
2021/06/09 09:19:01;;;;;;;9.70;5.05;;;23.90;57.00;;;;;;5078565;28;20425;-75
2021/06/09 09:21:38;;;;;;;10.73;5.50;;;23.90;57.50;;;;;;5070539;28;20415;-70
2021/06/09 09:24:08;;;;;;;10.70;6.20;;;23.90;55.90;;;;;;5082513;28;20500;-74
2021/06/09 09:26:35;;;;;;;9.77;5.50;;;24.00;56.40;;;;;;5073720;28;20776;-74
2021/06/09 09:29:12;;;;;;;11.65;6.15;;;23.90;54.90;;;;;;5080681;28;20407;-73
2021/06/09 09:31:50;;;;;;;12.07;5.82;;;23.90;54.80;;;;;;5068297;28;20435;-73
2021/06/09 09:34:35;;;;;;;9.57;5.07;;;23.90;55.40;;;;;;5080111;28;20425;-76
2021/06/09 09:37:08;;;;;;;7.55;5.20;;;24.00;55.50;;;;;;5075208;28;20473;-74
2021/06/09 09:39:36;;;;;;;8.65;5.20;;;24.00;55.20;;;;;;5078600;28;20431;-74
2021/06/09 09:42:17;;;;;;;11.52;5.10;;;24.00;54.10;;;;;;5076222;28;20416;-74
2021/06/09 09:44:44;;;;;;;11.40;5.18;;;24.00;54.60;;;;;;5073517;28;20412;-71
2021/06/09 09:47:15;;;;;;;10.30;5.97;;;24.00;54.10;;;;;;5092552;28;20421;-76
2021/06/09 09:49:44;;;;;;;11.70;6.60;;;24.10;54.20;;;;;;5074700;28;20439;-71
2021/06/09 09:52:11;;;;;;;10.15;6.25;;;24.10;54.60;;;;;;5069964;28;20508;-74
2021/06/09 09:54:39;;;;;;;10.45;6.13;;;24.10;54.10;;;;;;5075162;28;20417;-70
2021/06/09 09:57:09;;;;;;;13.40;6.60;;;24.20;53.40;;;;;;5070139;28;20498;-74
2021/06/09 09:59:35;;;;;;;11.87;6.70;;;24.20;53.00;;;;;;5076731;28;20434;-73
2021/06/09 10:02:04;;;;;;;9.25;6.22;;;24.20;52.50;;;;;;5069556;28;20451;-73
2021/06/09 10:04:33;;;;;;;13.97;6.10;;;24.20;52.70;;;;;;5071298;28;20933;-73
2021/06/09 10:07:03;;;;;;;10.90;4.93;;;24.30;52.70;;;;;;5069158;28;20431;-74
2021/06/09 10:09:37;;;;;;;10.63;5.47;;;24.20;51.40;;;;;;5073431;28;20441;-73
2021/06/09 10:12:06;;;;;;;12.45;6.30;;;24.30;50.40;;;;;;5069730;28;20423;-74
2021/06/09 10:14:35;;;;;;;15.02;7.05;;;24.30;51.00;;;;;;5078229;28;20423;-71
2021/06/09 10:17:03;;;;;;;11.95;8.27;;;24.40;51.50;;;;;;5069835;28;20428;-70
2021/06/09 10:19:31;;;;;;;15.80;7.50;;;24.40;51.70;;;;;;5068369;28;20420;-73
2021/06/09 10:22:02;;;;;;;14.00;9.75;;;24.40;51.70;;;;;;5068588;28;20438;-76
2021/06/09 10:24:30;;;;;;;18.20;9.73;;;24.50;52.20;;;;;;5070007;28;20427;-71
2021/06/09 10:27:00;;;;;;;15.02;8.30;;;24.50;52.40;;;;;;5075160;28;20447;-73
2021/06/09 10:29:30;;;;;;;14.77;8.30;;;24.50;52.10;;;;;;5070220;28;20446;-74
2021/06/09 10:31:59;;;;;;;11.15;6.10;;;24.50;51.30;;;;;;5074554;28;20434;-74
2021/06/09 10:34:26;;;;;;;9.88;6.70;;;24.50;49.50;;;;;;5070734;28;20408;-72
2021/06/09 10:36:55;;;;;;;10.48;6.30;;;24.50;50.30;;;;;;5068825;28;20826;-71
2021/06/09 10:39:23;;;;;;;11.40;6.00;;;24.50;50.70;;;;;;5074964;28;20425;-76
2021/06/09 10:41:53;;;;;;;12.13;6.20;;;24.50;50.10;;;;;;5071454;28;20419;-72
2021/06/09 10:44:22;;;;;;;11.13;5.55;;;24.50;50.50;;;;;;5085577;28;21203;-72
2021/06/09 10:46:50;;;;;;;11.95;5.35;;;24.60;51.30;;;;;;5065172;28;20444;-73
2021/06/09 10:49:18;;;;;;;12.23;6.13;;;24.60;51.20;;;;;;5071406;28;20814;-74
2021/06/09 10:51:47;;;;;;;10.93;5.70;;;24.70;52.20;;;;;;5062547;28;20430;-75
2021/06/09 10:54:14;;;;;;;9.93;4.97;;;24.70;52.00;;;;;;5064459;28;20426;-72
2021/06/09 10:56:44;;;;;;;7.57;4.45;;;24.70;52.30;;;;;;5065725;28;20430;-74
2021/06/09 10:59:14;;;;;;;8.10;3.90;;;24.70;52.60;;;;;;5069467;28;20423;-77
2021/06/09 11:01:40;;;;;;;7.80;3.60;;;24.80;52.40;;;;;;5061993;28;20489;-75
2021/06/09 11:04:07;;;;;;;6.68;3.53;;;24.80;53.70;;;;;;5065282;28;20442;-70
2021/06/09 11:06:35;;;;;;;6.53;3.35;;;24.90;55.00;;;;;;5063980;28;20416;-72
2021/06/09 11:09:12;;;;;;;6.72;3.42;;;25.00;55.50;;;;;;5076534;28;20427;-71
2021/06/09 11:11:38;;;;;;;5.72;3.13;;;25.00;55.30;;;;;;5064047;28;20906;-72
2021/06/09 11:14:19;;;;;;;5.15;2.60;;;25.10;54.90;;;;;;5061544;28;20429;-74
2021/06/09 11:16:48;;;;;;;5.22;2.60;;;25.10;54.20;;;;;;5063745;28;20428;-72
2021/06/09 11:19:31;;;;;;;5.20;2.60;;;25.10;54.70;;;;;;5070856;28;20481;-74
2021/06/09 11:22:13;;;;;;;5.03;2.53;;;25.10;55.00;;;;;;5063424;28;21769;-72
2021/06/09 11:24:39;;;;;;;6.10;2.75;;;25.10;55.70;;;;;;5069286;28;20428;-74
2021/06/09 11:27:27;;;;;;;3.95;2.50;;;25.20;55.50;;;;;;5067256;28;20435;-72
2021/06/09 11:29:54;;;;;;;5.55;2.72;;;25.20;55.30;;;;;;5067142;28;20979;-72
2021/06/09 11:32:23;;;;;;;6.33;2.80;;;25.30;55.10;;;;;;5066654;28;20440;-78
2021/06/09 11:34:56;;;;;;;3.47;2.28;;;25.20;55.70;;;;;;5071579;28;20909;-71
2021/06/09 11:37:23;;;;;;;4.20;2.28;;;25.30;55.60;;;;;;5065114;28;20435;-72
2021/06/09 11:39:58;;;;;;;3.08;2.30;;;25.40;55.10;;;;;;5063679;28;20438;-74
2021/06/09 11:42:25;;;;;;;7.28;2.72;;;25.40;55.40;;;;;;5065826;28;21199;-73
2021/06/09 11:44:52;;;;;;;5.68;2.60;;;25.40;54.60;;;;;;5061364;28;20430;-73
2021/06/09 11:47:23;;;;;;;12.53;2.70;;;25.50;54.80;;;;;;5062858;28;20448;-76
2021/06/09 11:49:51;;;;;;;6.75;2.80;;;25.50;54.90;;;;;;5065710;28;20455;-73
2021/06/09 11:52:18;;;;;;;6.10;2.70;;;25.60;54.80;;;;;;5069051;28;20448;-71
2021/06/09 11:54:46;;;;;;;8.07;2.53;;;25.50;54.40;;;;;;5063136;28;20435;-70
2021/06/09 11:57:18;;;;;;;5.35;2.40;;;25.50;54.40;;;;;;5068147;28;20799;-72
2021/06/09 11:59:45;;;;;;;9.43;2.80;;;25.50;54.90;;;;;;5064883;28;20419;-70
2021/06/09 12:02:19;;;;;;;13.17;3.00;;;25.50;55.40;;;;;;5065674;28;20548;-70
2021/06/09 12:04:47;;;;;;;7.15;2.80;;;25.50;55.20;;;;;;5079620;28;20485;-73
2021/06/09 12:07:21;;;;;;;9.57;2.50;;;25.60;55.00;;;;;;5104470;28;20429;-71
2021/06/09 12:09:48;;;;;;;8.68;2.80;;;25.70;55.10;;;;;;5063194;28;20482;-69
2021/06/09 12:12:17;;;;;;;4.53;2.60;;;25.70;55.50;;;;;;5066406;28;20419;-70
2021/06/09 12:14:44;;;;;;;4.40;2.43;;;25.70;54.50;;;;;;5062078;28;20427;-73
2021/06/09 12:17:22;;;;;;;6.97;2.70;;;25.70;54.30;;;;;;5069823;28;20765;-74
2021/06/09 12:19:58;;;;;;;5.65;2.70;;;25.80;54.50;;;;;;5067256;28;20431;-75
2021/06/09 12:22:28;;;;;;;7.68;3.40;;;25.80;54.40;;;;;;5066379;28;20488;-73
2021/06/09 12:25:01;;;;;;;6.65;3.25;;;25.90;55.00;;;;;;5069685;28;20427;-73
2021/06/09 12:27:28;;;;;;;9.43;3.38;;;25.90;55.00;;;;;;5068628;28;20440;-71
2021/06/09 12:29:55;;;;;;;4.25;2.97;;;25.90;55.30;;;;;;5070661;28;20476;-72
2021/06/09 12:32:26;;;;;;;7.10;3.20;;;26.00;54.70;;;;;;5073115;28;20772;-72
2021/06/09 12:35:00;;;;;;;4.78;3.13;;;26.00;55.30;;;;;;5071492;28;20425;-73
2021/06/09 12:37:28;;;;;;;5.10;3.45;;;26.10;54.40;;;;;;5070047;28;20529;-74
2021/06/09 12:40:01;;;;;;;5.33;2.60;;;26.20;55.30;;;;;;5063987;28;20433;-72
2021/06/09 12:42:30;;;;;;;3.65;2.47;;;26.30;52.70;;;;;;5066384;28;20484;-73
2021/06/09 12:44:57;;;;;;;5.57;2.90;;;26.30;51.20;;;;;;5082464;28;20435;-72